Time;durP1;ratioP1;P1;durP2;ratioP2;P2;SDS_P1;SDS_P2;PMS_P1;PMS_P2;Temp;Humidity;BMP_temperature;BMP_pressure;BME280_temperature;BME280_humidity;BME280_pressure;Samples;Min_cycle;Max_cycle;Signal;HPM_P1;HPM_P2
2021/07/26 00:03:00;;;;;;;11.93;7.58;;;;;;;21.49;62.62;98618.21;263244;1092;114468;-69
2021/07/26 00:08:05;;;;;;;12.35;8.40;;;;;;;21.52;62.56;98630.56;262441;1092;114704;-68
2021/07/26 00:13:09;;;;;;;13.77;9.33;;;;;;;21.54;62.86;98665.61;263568;1092;115530;-66
2021/07/26 00:18:13;;;;;;;15.30;10.38;;;;;;;21.55;62.78;98656.45;263589;1092;114943;-68
2021/07/26 00:23:18;;;;;;;13.93;9.58;;;;;;;21.53;63.04;98636.81;263802;1092;115008;-69
2021/07/26 00:28:21;;;;;;;13.95;10.48;;;;;;;21.44;63.41;98601.66;263775;1092;116552;-67
2021/07/26 00:34:06;;;;;;;15.78;10.65;;;;;;;21.36;63.56;98592.72;263755;1092;115650;-69
2021/07/26 00:39:12;;;;;;;15.83;10.40;;;;;;;21.25;63.87;98583.92;263753;1092;115604;-68
2021/07/26 00:44:17;;;;;;;16.00;11.43;;;;;;;21.21;64.14;98570.92;263830;1092;115927;-71
2021/07/26 00:49:25;;;;;;;15.73;11.00;;;;;;;21.17;64.39;98600.20;263783;1092;116054;-69
2021/07/26 00:54:39;;;;;;;17.83;11.40;;;;;;;21.10;64.22;98595.66;263315;1091;115245;-71
2021/07/26 00:59:43;;;;;;;16.33;10.50;;;;;;;21.01;64.76;98605.64;263366;1092;115139;-70
2021/07/26 01:04:47;;;;;;;16.37;9.83;;;;;;;20.97;65.06;98651.14;262837;1093;117777;-72
2021/07/26 01:09:51;;;;;;;20.20;10.23;;;;;;;20.96;65.24;98659.44;261938;1092;115098;-71
2021/07/26 01:14:57;;;;;;;14.58;10.90;;;;;;;20.96;65.79;98656.73;263293;1093;115750;-70
2021/07/26 01:20:05;;;;;;;15.50;11.17;;;;;;;20.93;65.81;98663.33;263614;1092;115423;-71
2021/07/26 01:25:09;;;;;;;14.60;10.47;;;;;;;20.85;66.11;98671.42;263746;1093;115303;-69
2021/07/26 01:30:13;;;;;;;15.43;11.33;;;;;;;20.78;66.28;98637.96;263818;1093;115046;-68
2021/07/26 01:35:16;;;;;;;13.80;11.58;;;;;;;20.74;66.58;98605.00;263789;1093;114911;-68
2021/07/26 01:40:20;;;;;;;14.08;11.73;;;;;;;20.83;67.09;98540.09;263828;1093;115287;-69
2021/07/26 01:45:23;;;;;;;17.07;13.20;;;;;;;20.84;67.16;98510.16;263863;1093;115097;-72
2021/07/26 01:50:30;;;;;;;14.20;11.20;;;;;;;20.84;67.14;98480.41;263938;1093;115530;-73
2021/07/26 01:55:33;;;;;;;15.40;11.33;;;;;;;20.84;66.98;98449.81;263629;1092;115395;-71
2021/07/26 02:00:37;;;;;;;19.05;11.88;;;;;;;20.87;67.69;98422.41;263743;1093;114796;-70
2021/07/26 02:05:41;;;;;;;14.78;12.08;;;;;;;20.87;67.56;98442.19;263795;1091;115163;-74
2021/07/26 02:10:44;;;;;;;11.98;10.48;;;;;;;20.84;67.52;98487.68;262862;1091;115588;-69
2021/07/26 02:15:48;;;;;;;13.35;8.95;;;;;;;20.88;67.85;98497.13;263671;1093;117104;-67
2021/07/26 02:20:52;;;;;;;11.10;8.47;;;;;;;20.91;68.12;98485.96;263866;1092;115511;-71
2021/07/26 02:25:55;;;;;;;13.40;9.68;;;;;;;20.91;68.30;98485.96;263586;1093;114983;-69
2021/07/26 02:30:59;;;;;;;17.53;11.38;;;;;;;20.91;68.30;98499.48;263793;1093;114913;-68
2021/07/26 02:36:02;;;;;;;21.83;13.88;;;;;;;20.86;68.35;98489.20;263774;1092;115312;-69
2021/07/26 02:41:14;;;;;;;24.63;14.50;;;;;;;20.81;68.32;98491.56;263821;1092;116055;-68
2021/07/26 02:46:18;;;;;;;26.77;17.87;;;;;;;20.70;68.38;98497.36;263782;1093;115104;-69
2021/07/26 02:51:22;;;;;;;25.25;16.55;;;;;;;20.65;68.88;98505.13;263772;1092;115735;-67
2021/07/26 02:56:25;;;;;;;24.45;15.70;;;;;;;20.59;68.59;98509.38;263179;1092;115207;-72
2021/07/26 03:01:32;;;;;;;25.53;14.45;;;;;;;20.60;69.15;98524.58;263551;1093;115680;-71
2021/07/26 03:06:36;;;;;;;17.00;11.73;;;;;;;20.58;68.99;98536.58;263712;1092;115542;-68
2021/07/26 03:11:40;;;;;;;14.53;9.75;;;;;;;20.57;69.09;98546.55;263709;1092;115227;-68
2021/07/26 03:16:43;;;;;;;8.45;6.88;;;;;;;20.54;68.93;98536.08;263662;1092;116162;-69
2021/07/26 03:22:20;;;;;;;10.78;7.00;;;;;;;20.54;69.21;98555.84;263795;1091;115373;-71
2021/07/26 03:27:25;;;;;;;10.07;6.17;;;;;;;20.59;69.18;98541.83;263501;1092;115132;-71
2021/07/26 03:32:29;;;;;;;7.08;5.40;;;;;;;20.61;69.37;98538.94;263964;1093;116169;-71
2021/07/26 03:37:32;;;;;;;7.27;5.40;;;;;;;20.62;69.27;98527.09;263544;1092;115256;-71
2021/07/26 03:42:37;;;;;;;40.13;27.27;;;;;;;20.84;70.08;98522.84;263647;1091;115081;-71
2021/07/26 03:47:41;;;;;;;12.80;10.63;;;;;;;21.03;69.39;98527.86;262935;1092;115423;-67
2021/07/26 03:52:47;;;;;;;10.98;8.40;;;;;;;21.18;69.18;98541.50;263788;1092;116462;-67
2021/07/26 03:57:52;;;;;;;129.50;97.40;;;;;;;21.31;69.29;98541.78;263690;1092;114956;-68
2021/07/26 04:08:11;;;;;;;19.98;15.78;;;;;;;21.56;68.64;98537.11;262879;1092;115222;-68
2021/07/26 04:13:28;;;;;;;23.27;17.63;;;;;;;21.66;68.62;98520.64;261943;1091;115209;-68
2021/07/26 04:18:42;;;;;;;14.17;8.80;;;;;;;21.68;68.15;98524.03;261440;1092;114768;-68
2021/07/26 04:23:47;;;;;;;14.43;6.93;;;;;;;21.72;67.57;98530.77;262364;1093;114782;-68
2021/07/26 04:28:51;;;;;;;9.00;6.40;;;;;;;21.69;67.94;98534.67;263780;1092;118067;-67
2021/07/26 04:33:55;;;;;;;12.05;8.03;;;;;;;21.67;67.74;98544.86;263647;1093;114682;-69
2021/07/26 04:38:59;;;;;;;12.23;8.30;;;;;;;21.76;68.06;98545.64;263761;1093;115076;-69
2021/07/26 04:44:02;;;;;;;13.95;8.68;;;;;;;21.89;68.30;98545.89;263830;1093;115418;-67
2021/07/26 04:49:06;;;;;;;10.17;7.57;;;;;;;21.95;67.92;98555.19;263798;1093;115935;-66
2021/07/26 04:54:10;;;;;;;13.50;8.05;;;;;;;22.03;67.81;98560.53;263789;1092;115394;-68
2021/07/26 04:59:17;;;;;;;13.50;8.53;;;;;;;22.07;67.64;98558.30;263672;1093;115219;-69
2021/07/26 05:04:21;;;;;;;12.05;7.78;;;;;;;21.94;67.46;98548.05;263783;1091;115690;-68
2021/07/26 05:09:25;;;;;;;11.85;7.85;;;;;;;21.94;67.77;98546.22;263793;1092;115411;-69
2021/07/26 05:14:28;;;;;;;10.50;8.23;;;;;;;21.99;67.97;98561.09;263945;1092;115130;-69
2021/07/26 05:19:32;;;;;;;16.60;8.93;;;;;;;22.07;67.82;98561.85;263433;1092;115067;-67
2021/07/26 05:24:35;;;;;;;13.93;9.33;;;;;;;22.14;68.07;98568.23;263737;1092;115087;-68
2021/07/26 05:29:39;;;;;;;14.48;9.55;;;;;;;22.15;67.87;98572.69;263764;1093;115502;-66
2021/07/26 05:34:44;;;;;;;12.30;8.90;;;;;;;22.18;67.94;98574.17;263781;1091;115261;-68
2021/07/26 05:39:48;;;;;;;14.20;8.43;;;;;;;22.18;67.42;98571.45;263725;1092;116812;-67
2021/07/26 05:44:53;;;;;;;14.65;8.50;;;;;;;22.13;67.50;98590.11;263936;1093;115546;-68
2021/07/26 05:49:57;;;;;;;14.83;8.15;;;;;;;22.12;67.52;98593.86;263699;1093;115833;-69
2021/07/26 05:55:02;;;;;;;12.40;7.10;;;;;;;22.10;67.42;98598.59;262444;1092;114989;-70
2021/07/26 06:00:10;;;;;;;10.20;6.23;;;;;;;22.09;67.62;98599.63;263710;1092;115202;-68
2021/07/26 06:05:13;;;;;;;10.17;5.87;;;;;;;22.07;68.17;98613.34;263510;1092;114925;-68
2021/07/26 06:10:17;;;;;;;4.30;3.35;;;;;;;22.15;67.99;98616.05;263800;1092;115129;-67
2021/07/26 06:15:21;;;;;;;9.95;4.90;;;;;;;22.20;67.98;98624.48;263767;1092;114910;-67
2021/07/26 06:20:25;;;;;;;857.40;655.25;;;;;;;22.28;67.48;98629.02;263910;1093;114542;-67
2021/07/26 06:25:28;;;;;;;56.17;43.50;;;;;;;22.29;67.68;98625.28;263826;1092;115461;-68
2021/07/26 06:30:32;;;;;;;15.88;9.73;;;;;;;22.34;67.24;98632.86;263307;1092;115336;-68
2021/07/26 06:35:36;;;;;;;14.65;7.83;;;;;;;22.38;67.31;98648.61;263740;1093;115168;-68
2021/07/26 06:40:43;;;;;;;9.85;7.88;;;;;;;22.44;67.23;98638.89;263754;1092;114634;-66
2021/07/26 06:45:47;;;;;;;10.30;8.27;;;;;;;22.51;67.25;98639.01;262912;1093;114883;-66
2021/07/26 06:50:51;;;;;;;11.35;5.98;;;;;;;22.58;66.96;98637.25;263594;1092;115544;-67
2021/07/26 06:55:54;;;;;;;7.25;4.80;;;;;;;22.60;67.06;98641.48;263406;1092;115306;-67
2021/07/26 07:01:02;;;;;;;8.38;5.00;;;;;;;22.62;66.94;98647.58;263016;1092;115166;-67
2021/07/26 07:06:12;;;;;;;6.90;4.20;;;;;;;22.66;66.70;98646.19;263302;1093;117058;-66
2021/07/26 07:11:17;;;;;;;8.65;4.63;;;;;;;22.74;66.90;98658.83;263687;1093;115326;-68
2021/07/26 07:16:23;;;;;;;10.13;4.10;;;;;;;22.78;66.70;98662.86;263482;1092;114700;-67
2021/07/26 07:21:29;;;;;;;10.60;4.67;;;;;;;22.80;66.65;98657.27;263493;1092;115709;-68
2021/07/26 07:26:32;;;;;;;9.07;6.20;;;;;;;22.84;66.49;98661.30;263737;1092;114790;-68
2021/07/26 07:31:37;;;;;;;11.13;6.83;;;;;;;22.86;65.99;98656.52;263182;1093;114682;-67
2021/07/26 07:36:42;;;;;;;7.85;4.43;;;;;;;22.90;66.23;98674.98;263592;1093;114640;-66
2021/07/26 07:41:45;;;;;;;8.13;4.50;;;;;;;22.95;65.94;98666.31;263088;1092;114790;-68
2021/07/26 07:46:49;;;;;;;5.55;4.08;;;;;;;23.03;65.85;98663.54;263657;1093;114926;-67
2021/07/26 07:51:53;;;;;;;9.58;4.15;;;;;;;23.11;65.86;98670.75;263709;1092;115451;-67
2021/07/26 07:56:56;;;;;;;6.65;3.78;;;;;;;23.20;65.62;98672.38;263590;1091;115180;-67
2021/07/26 08:02:06;;;;;;;5.97;4.13;;;;;;;23.28;65.19;98683.14;263755;1092;115116;-68
2021/07/26 08:07:09;;;;;;;5.43;3.80;;;;;;;23.32;65.11;98683.61;263727;1092;115323;-67
2021/07/26 08:12:14;;;;;;;4.90;3.90;;;;;;;23.35;64.34;98689.51;263563;1091;115348;-67
2021/07/26 08:17:18;;;;;;;9.53;4.90;;;;;;;23.37;64.23;98692.89;263715;1093;114793;-67
2021/07/26 08:22:21;;;;;;;8.08;4.83;;;;;;;23.45;64.49;98704.70;263723;1092;114771;-67
2021/07/26 08:27:25;;;;;;;5.53;4.33;;;;;;;23.48;64.25;98694.30;263242;1092;115466;-67
2021/07/26 08:32:29;;;;;;;5.38;4.43;;;;;;;23.58;64.30;98689.44;263226;1093;114612;-67
2021/07/26 08:37:33;;;;;;;6.00;4.90;;;;;;;23.70;64.27;98687.11;263014;1092;114625;-68
2021/07/26 08:42:39;;;;;;;5.43;4.23;;;;;;;23.81;63.84;98688.52;263489;1092;115173;-68
2021/07/26 08:47:44;;;;;;;6.88;4.75;;;;;;;23.86;63.54;98687.97;263409;1093;114596;-67
2021/07/26 08:52:49;;;;;;;6.87;4.30;;;;;;;23.87;63.29;98692.36;263287;1092;114997;-67
2021/07/26 08:57:52;;;;;;;8.07;4.23;;;;;;;23.92;63.62;98698.09;263773;1093;115082;-68
2021/07/26 09:02:56;;;;;;;8.98;5.30;;;;;;;23.96;63.15;98708.38;263849;1092;115405;-68
2021/07/26 09:08:01;;;;;;;7.43;4.75;;;;;;;23.95;62.67;98698.55;263798;1092;115412;-68
2021/07/26 09:13:07;;;;;;;5.67;4.10;;;;;;;24.01;62.47;98708.64;263503;1093;114862;-67
2021/07/26 09:18:15;;;;;;;8.80;4.70;;;;;;;24.13;62.97;98709.02;263851;1092;116159;-69
2021/07/26 09:23:21;;;;;;;6.67;4.57;;;;;;;24.26;62.59;98698.30;263796;1093;114759;-70
2021/07/26 09:28:32;;;;;;;5.50;4.67;;;;;;;24.36;62.38;98697.16;263777;1093;115205;-68
2021/07/26 09:33:35;;;;;;;7.97;4.90;;;;;;;24.43;62.24;98703.55;263816;1093;114915;-66
2021/07/26 09:38:52;;;;;;;11.38;4.38;;;;;;;24.48;61.96;98699.20;263887;1093;114870;-66
2021/07/26 09:44:05;;;;;;;4.58;3.88;;;;;;;24.54;61.77;98698.44;263753;1092;115108;-69
2021/07/26 09:49:13;;;;;;;7.50;4.10;;;;;;;24.56;61.46;98698.26;263753;1093;115486;-68
2021/07/26 09:54:17;;;;;;;4.70;3.60;;;;;;;24.55;61.63;98701.98;263644;1092;115105;-66
2021/07/26 09:59:25;;;;;;;7.23;3.70;;;;;;;24.57;61.02;98727.14;263725;1092;115187;-72
2021/07/26 10:04:30;;;;;;;5.40;3.33;;;;;;;24.58;60.90;98714.38;263701;1091;204247;-69
2021/07/26 10:09:34;;;;;;;262.60;198.83;;;;;;;24.67;60.87;98724.11;263669;1091;115299;-68
2021/07/26 10:14:38;;;;;;;;;;;;;;;24.78;60.81;98720.87;263525;1092;116114;-68
2021/07/26 10:19:41;;;;;;;8.60;4.60;;;;;;;24.90;60.89;98721.20;263610;1092;101270;-68
2021/07/26 10:25:01;;;;;;;4.60;3.60;;;;;;;25.08;60.67;98727.02;263676;1091;115287;-67
2021/07/26 10:30:05;;;;;;;8.97;3.67;;;;;;;25.21;60.20;98712.72;263642;1093;115172;-67
2021/07/26 10:35:12;;;;;;;4.77;3.80;;;;;;;25.37;60.08;98714.28;263614;1093;114975;-67
2021/07/26 10:40:29;;;;;;;4.77;3.50;;;;;;;25.46;59.42;98715.83;263343;1092;114883;-68
2021/07/26 10:45:36;;;;;;;3.63;3.20;;;;;;;25.56;59.39;98701.85;263523;1092;115097;-68
2021/07/26 10:50:39;;;;;;;7.73;3.40;;;;;;;25.63;59.29;98705.46;263836;1093;115521;-68
2021/07/26 10:56:16;;;;;;;5.83;3.23;;;;;;;25.77;58.85;98704.48;263544;1093;115269;-68
2021/07/26 11:01:20;;;;;;;6.20;3.90;;;;;;;25.95;58.69;98709.44;263477;1093;115265;-68
2021/07/26 11:06:39;;;;;;;;;;;;;;;26.13;58.69;98708.91;263648;1091;115608;-68
2021/07/26 11:11:44;;;;;;;6.13;3.73;;;;;;;26.26;58.11;98702.67;263806;1093;101184;-68
2021/07/26 11:21:54;;;;;;;4.33;3.60;;;;;;;26.57;57.71;98700.28;263655;1093;115232;-68
2021/07/26 11:26:58;;;;;;;4.60;3.45;;;;;;;26.59;57.12;98705.52;263056;1092;115173;-69
2021/07/26 11:32:02;;;;;;;6.70;4.23;;;;;;;26.58;56.58;98685.57;263609;1092;115049;-69
2021/07/26 11:37:09;;;;;;;4.83;3.70;;;;;;;26.59;56.82;98689.13;263639;1092;114561;-70
2021/07/26 11:42:13;;;;;;;5.43;4.00;;;;;;;26.78;56.36;98685.61;263574;1093;115934;-67
2021/07/26 11:47:28;;;;;;;3.95;3.60;;;;;;;27.03;56.63;98680.36;263591;1092;115648;-68
2021/07/26 11:52:32;;;;;;;6.38;3.95;;;;;;;27.28;56.28;98682.52;263662;1092;114522;-68
2021/07/26 11:57:36;;;;;;;7.30;4.15;;;;;;;27.50;55.15;98688.57;263582;1092;115493;-67
2021/07/26 12:02:40;;;;;;;6.47;4.13;;;;;;;27.72;55.36;98678.23;263882;1092;115881;-67
2021/07/26 12:07:45;;;;;;;8.67;4.43;;;;;;;27.75;54.64;98689.58;263612;1093;115753;-66
2021/07/26 12:12:49;;;;;;;20.60;16.43;;;;;;;27.82;54.55;98681.39;263634;1093;114873;-69
2021/07/26 12:18:06;;;;;;;6.20;4.80;;;;;;;28.03;54.26;98686.57;263523;1093;116386;-67
2021/07/26 12:23:17;;;;;;;6.33;4.87;;;;;;;28.21;53.89;98677.64;263737;1093;115677;-67
2021/07/26 12:28:49;;;;;;;7.43;4.93;;;;;;;28.41;53.15;98684.95;263684;1092;115143;-68
2021/07/26 12:34:13;;;;;;;6.50;4.40;;;;;;;28.59;52.81;98687.78;263068;1091;114822;-69
2021/07/26 12:39:18;;;;;;;5.18;4.38;;;;;;;28.78;52.23;98682.42;263761;1092;115484;-68
2021/07/26 12:44:30;;;;;;;7.30;4.73;;;;;;;28.92;52.22;98676.61;263640;1093;114698;-67
2021/07/26 12:49:34;;;;;;;6.00;4.33;;;;;;;29.09;51.93;98676.93;263711;1093;115219;-68
2021/07/26 12:54:44;;;;;;;79.98;60.48;;;;;;;29.27;51.49;98676.13;263604;1093;115383;-68
2021/07/26 12:59:51;;;;;;;6.57;5.50;;;;;;;29.41;51.10;98671.36;263741;1091;115691;-67
2021/07/26 13:04:54;;;;;;;8.53;4.67;;;;;;;29.55;50.44;98663.84;263582;1092;115036;-70
2021/07/26 13:09:58;;;;;;;8.50;4.35;;;;;;;29.66;50.12;98663.97;263649;1093;115656;-68
2021/07/26 13:15:03;;;;;;;;;;;;;;;29.83;50.26;98658.72;263537;1092;115359;-68
2021/07/26 13:20:08;;;;;;;4.65;3.70;;;;;;;30.02;49.79;98662.27;263821;1093;101565;-69
2021/07/26 13:25:12;;;;;;;9.08;4.33;;;;;;;30.17;49.46;98667.39;263522;1092;115085;-68
2021/07/26 13:30:16;;;;;;;5.33;4.43;;;;;;;30.34;49.53;98659.38;263564;1091;115332;-70
2021/07/26 13:35:19;;;;;;;6.00;4.13;;;;;;;30.46;48.95;98662.16;263193;1092;114983;-68
2021/07/26 13:40:23;;;;;;;5.55;4.30;;;;;;;30.60;48.34;98667.22;263660;1091;115617;-67
2021/07/26 13:45:27;;;;;;;6.57;4.30;;;;;;;30.73;48.50;98648.87;263704;1092;116010;-69
2021/07/26 13:50:31;;;;;;;10.33;4.60;;;;;;;30.89;48.22;98664.72;263664;1092;114992;-67
2021/07/26 13:55:34;;;;;;;156.10;139.10;;;;;;;31.03;47.91;98657.09;263645;1092;115012;-69
2021/07/26 14:00:38;;;;;;;19.98;14.93;;;;;;;31.11;47.24;98648.48;263546;1092;115823;-67
2021/07/26 14:05:41;;;;;;;9.83;6.18;;;;;;;31.12;47.60;98649.34;263162;1092;115607;-69
2021/07/26 14:10:45;;;;;;;9.33;5.70;;;;;;;30.94;47.33;98651.08;263517;1093;115956;-68
2021/07/26 14:15:49;;;;;;;18.10;6.47;;;;;;;30.75;46.98;98650.31;263412;1093;115606;-69
2021/07/26 14:20:53;;;;;;;;;;;;;;;30.55;47.05;98645.13;263637;1092;115258;-69
2021/07/26 14:25:58;;;;;;;8.17;4.67;;;;;;;30.34;47.46;98638.25;263664;1092;102286;-68
2021/07/26 14:31:05;;;;;;;5.93;4.50;;;;;;;30.14;47.02;98637.65;263648;1093;115237;-69
2021/07/26 14:36:08;;;;;;;6.95;4.75;;;;;;;29.95;47.25;98636.83;263351;1092;116722;-68
2021/07/26 14:41:14;;;;;;;7.87;4.67;;;;;;;29.81;47.26;98641.64;263631;1092;115729;-69
2021/07/26 14:46:18;;;;;;;7.63;4.93;;;;;;;29.62;47.04;98631.72;263176;1092;115235;-70
2021/07/26 14:51:22;;;;;;;7.20;4.80;;;;;;;29.40;47.29;98645.02;263410;1092;114902;-68
2021/07/26 14:56:27;;;;;;;6.80;4.80;;;;;;;29.26;47.58;98635.25;263639;1092;114768;-69
2021/07/26 15:01:32;;;;;;;;;;;;;;;29.11;47.70;98628.23;263030;1092;114709;-70
2021/07/26 15:06:36;;;;;;;8.57;4.87;;;;;;;28.92;47.95;98612.76;263761;1092;102270;-69
2021/07/26 15:11:42;;;;;;;10.57;5.93;;;;;;;28.77;48.16;98607.63;263676;1093;115203;-69
2021/07/26 15:16:46;;;;;;;;;;;;;;;28.64;48.33;98597.61;262918;1093;114852;-69
2021/07/26 15:21:50;;;;;;;9.00;5.07;;;;;;;28.49;48.79;98610.77;263720;1093;102320;-69
2021/07/26 15:26:56;;;;;;;9.03;5.63;;;;;;;28.39;48.85;98607.67;263701;1093;115130;-71
2021/07/26 15:32:00;;;;;;;5.83;5.00;;;;;;;28.28;49.06;98607.28;263640;1092;115171;-69
2021/07/26 15:37:03;;;;;;;7.28;5.05;;;;;;;28.17;49.17;98602.52;262981;1092;114781;-69
2021/07/26 15:42:08;;;;;;;12.00;5.55;;;;;;;28.10;49.19;98598.15;262043;1091;114613;-69
2021/07/26 15:47:11;;;;;;;13.83;6.90;;;;;;;28.00;49.63;98599.45;261028;1093;115097;-70
2021/07/26 15:52:15;;;;;;;7.88;5.50;;;;;;;27.91;49.91;98588.97;263683;1092;116126;-68
2021/07/26 15:57:19;;;;;;;12.03;5.50;;;;;;;27.81;50.31;98589.44;263752;1092;115319;-69
2021/07/26 16:02:23;;;;;;;268.93;218.03;;;;;;;27.74;50.36;98580.39;263427;1092;116457;-70
2021/07/26 16:07:27;;;;;;;47.93;36.97;;;;;;;27.70;50.73;98587.36;263109;1092;115669;-71
2021/07/26 16:12:32;;;;;;;18.68;12.05;;;;;;;27.65;50.72;98595.36;263494;1092;115441;-71
2021/07/26 16:17:36;;;;;;;16.60;9.13;;;;;;;27.56;51.59;98586.57;263656;1093;116006;-72
2021/07/26 16:22:40;;;;;;;15.90;9.03;;;;;;;27.52;51.22;98582.59;263239;1093;115204;-71
2021/07/26 16:27:43;;;;;;;13.53;7.20;;;;;;;27.48;50.92;98584.05;263589;1092;115442;-71
2021/07/26 16:32:47;;;;;;;15.68;7.65;;;;;;;27.44;51.24;98582.81;263663;1093;115421;-69
2021/07/26 16:37:51;;;;;;;16.00;8.20;;;;;;;27.34;51.48;98578.66;263765;1092;115426;-70
2021/07/26 16:42:56;;;;;;;64.43;50.33;;;;;;;27.24;51.67;98589.19;263560;1092;115023;-70
2021/07/26 16:48:00;;;;;;;24.15;14.00;;;;;;;27.20;52.19;98587.91;262848;1093;115374;-70
2021/07/26 16:53:04;;;;;;;21.33;11.00;;;;;;;27.16;52.30;98581.20;263613;1092;115362;-71
2021/07/26 16:58:08;;;;;;;110.27;86.07;;;;;;;27.11;52.22;98581.82;263738;1091;115987;-72
2021/07/26 17:03:12;;;;;;;34.60;22.90;;;;;;;27.07;52.25;98596.09;263801;1092;115430;-71
2021/07/26 17:08:17;;;;;;;23.27;15.97;;;;;;;27.04;52.50;98599.28;262949;1093;115247;-67
2021/07/26 17:13:21;;;;;;;21.35;11.40;;;;;;;26.99;53.00;98594.43;263688;1093;115567;-70
2021/07/26 17:18:25;;;;;;;29.58;9.85;;;;;;;26.94;52.69;98607.06;263707;1092;115368;-68
2021/07/26 17:23:28;;;;;;;21.70;10.13;;;;;;;26.86;53.28;98613.55;263596;1092;114837;-71
2021/07/26 17:28:32;;;;;;;15.90;8.97;;;;;;;26.81;53.44;98618.82;263094;1093;115313;-69
2021/07/26 17:33:40;;;;;;;20.07;9.30;;;;;;;26.76;53.33;98619.43;263919;1092;114547;-72
2021/07/26 17:38:44;;;;;;;11.95;8.25;;;;;;;26.72;53.56;98628.27;264038;1092;114724;-68
2021/07/26 17:43:47;;;;;;;14.43;8.45;;;;;;;26.67;53.43;98619.88;263864;1092;115714;-69
2021/07/26 17:48:52;;;;;;;13.65;8.23;;;;;;;26.62;53.50;98621.31;263877;1089;115565;-72
2021/07/26 17:53:57;;;;;;;116.67;84.93;;;;;;;26.59;53.81;98629.08;263284;1090;115069;-69
2021/07/26 17:59:01;;;;;;;20.93;15.30;;;;;;;26.56;54.13;98624.03;262588;1093;115316;-69
2021/07/26 18:04:05;;;;;;;20.90;11.40;;;;;;;26.51;54.26;98621.11;263897;1090;115948;-69
2021/07/26 18:09:11;;;;;;;99.83;80.87;;;;;;;26.42;54.40;98634.06;262508;1090;115595;-79
2021/07/26 18:14:15;;;;;;;35.35;22.43;;;;;;;26.34;54.63;98624.19;263882;1092;115335;-70
2021/07/26 18:19:19;;;;;;;17.90;9.57;;;;;;;26.31;55.12;98626.48;262637;1091;114702;-72
2021/07/26 18:24:23;;;;;;;17.85;9.20;;;;;;;26.23;55.15;98624.80;263955;1090;114907;-68
2021/07/26 18:29:27;;;;;;;11.43;8.50;;;;;;;26.13;55.72;98630.64;262428;1090;114762;-70
2021/07/26 18:34:31;;;;;;;15.17;8.77;;;;;;;26.07;55.60;98630.63;263856;1093;115474;-72
2021/07/26 18:39:34;;;;;;;16.40;9.20;;;;;;;26.00;56.27;98627.03;263338;1093;116498;-72
2021/07/26 18:44:41;;;;;;;10.40;7.78;;;;;;;25.94;56.10;98634.13;262392;1092;115083;-70
2021/07/26 18:49:46;;;;;;;14.45;8.93;;;;;;;25.92;56.50;98645.26;263245;1089;114561;-71
2021/07/26 18:54:50;;;;;;;15.80;9.27;;;;;;;25.91;56.71;98653.63;261329;1092;115479;-69
2021/07/26 18:59:55;;;;;;;10.63;7.70;;;;;;;25.89;56.66;98653.00;261266;1092;114633;-68
2021/07/26 19:04:58;;;;;;;15.23;8.50;;;;;;;25.85;56.61;98665.34;263773;1090;115353;-68
2021/07/26 19:10:02;;;;;;;12.95;7.60;;;;;;;25.81;57.25;98669.52;263715;1091;114887;-68
2021/07/26 19:15:07;;;;;;;12.70;8.95;;;;;;;25.75;57.15;98671.16;263198;1092;115387;-72
2021/07/26 19:20:15;;;;;;;8.93;8.00;;;;;;;25.67;56.94;98671.30;262290;1092;115179;-71
2021/07/26 19:25:22;;;;;;;17.40;8.70;;;;;;;25.60;57.23;98673.16;263621;1092;114955;-69
2021/07/26 19:30:28;;;;;;;14.67;8.93;;;;;;;25.52;57.34;98657.81;263700;1091;115485;-71
2021/07/26 19:35:33;;;;;;;16.88;8.88;;;;;;;25.44;57.50;98660.67;263699;1092;115270;-71
2021/07/26 19:40:37;;;;;;;512.93;447.50;;;;;;;25.37;57.81;98652.45;263565;1092;116055;-72
2021/07/26 19:45:41;;;;;;;39.45;29.48;;;;;;;25.35;58.33;98670.91;263680;1092;116221;-73
2021/07/26 19:50:45;;;;;;;425.48;355.93;;;;;;;25.32;58.58;98667.73;263674;1092;115361;-70
2021/07/26 19:55:48;;;;;;;50.80;38.95;;;;;;;25.33;58.89;98666.69;263449;1093;115999;-70
2021/07/26 20:00:52;;;;;;;35.53;24.78;;;;;;;25.36;58.96;98674.47;263572;1092;115379;-70
2021/07/26 20:05:57;;;;;;;24.63;15.43;;;;;;;25.38;58.93;98661.50;262057;1092;115148;-72
2021/07/26 20:11:01;;;;;;;25.08;16.15;;;;;;;25.36;59.21;98649.95;263843;1093;115126;-72
2021/07/26 20:16:05;;;;;;;78.98;60.10;;;;;;;25.35;59.43;98643.66;263702;1092;115261;-72
2021/07/26 20:21:09;;;;;;;;;;;;;;;25.32;59.40;98657.68;263477;1092;115589;-71
2021/07/26 20:26:13;;;;;;;28.73;19.87;;;;;;;25.23;59.39;98656.97;263743;1092;101905;-73
2021/07/26 20:31:17;;;;;;;36.60;27.33;;;;;;;25.20;59.77;98660.13;263673;1093;115088;-70
2021/07/26 20:36:22;;;;;;;89.98;75.33;;;;;;;25.17;59.66;98674.14;263470;1091;115803;-69
2021/07/26 20:41:26;;;;;;;50.53;40.03;;;;;;;25.19;59.76;98665.75;263701;1093;115296;-70
2021/07/26 20:46:30;;;;;;;49.17;38.93;;;;;;;25.19;59.88;98682.94;263649;1092;115988;-75
2021/07/26 20:51:34;;;;;;;;;;;;;;;25.18;59.89;98678.53;263751;1092;115379;-73
2021/07/26 20:56:39;;;;;;;86.13;71.10;;;;;;;25.15;60.02;98667.19;263802;1092;102330;-71
2021/07/26 21:01:43;;;;;;;33.03;23.43;;;;;;;25.16;59.98;98639.75;262398;1093;116170;-68
2021/07/26 21:06:47;;;;;;;27.13;18.63;;;;;;;25.19;59.47;98639.35;263449;1092;115919;-71
2021/07/26 21:11:50;;;;;;;24.43;18.03;;;;;;;25.19;59.46;98638.52;263752;1092;115514;-72
2021/07/26 21:17:03;;;;;;;135.60;117.73;;;;;;;25.18;59.70;98643.13;263666;1093;115357;-70
2021/07/26 21:22:09;;;;;;;30.07;22.80;;;;;;;25.15;59.70;98634.52;263513;1093;116514;-70
2021/07/26 21:27:13;;;;;;;26.30;16.57;;;;;;;25.14;59.58;98638.28;263734;1092;115978;-70
2021/07/26 21:32:17;;;;;;;413.00;353.00;;;;;;;25.11;59.54;98630.48;263716;1092;115549;-71
2021/07/26 21:37:21;;;;;;;33.13;27.30;;;;;;;25.06;59.58;98617.44;263098;1093;115988;-69
2021/07/26 21:42:25;;;;;;;17.78;14.03;;;;;;;25.01;59.47;98614.48;263438;1092;115082;-69
2021/07/26 21:47:29;;;;;;;21.80;10.70;;;;;;;24.92;59.37;98615.66;263621;1092;115533;-74
2021/07/26 21:52:33;;;;;;;22.03;11.03;;;;;;;24.83;59.38;98625.87;263728;1092;115026;-72
2021/07/26 21:57:37;;;;;;;16.83;10.45;;;;;;;24.74;59.45;98640.64;263747;1092;115052;-71
2021/07/26 22:02:40;;;;;;;15.05;9.63;;;;;;;24.62;59.63;98636.75;263244;1090;115457;-72
2021/07/26 22:07:45;;;;;;;12.45;8.68;;;;;;;24.50;59.88;98634.56;261314;1092;115435;-70
2021/07/26 22:12:49;;;;;;;11.70;8.73;;;;;;;24.46;60.11;98643.31;261662;1092;115208;-70
2021/07/26 22:17:55;;;;;;;12.47;9.80;;;;;;;24.44;60.29;98658.98;261660;1092;114663;-70
2021/07/26 22:23:02;;;;;;;14.13;8.97;;;;;;;24.37;60.73;98658.04;261904;1093;115922;-69
2021/07/26 22:28:31;;;;;;;11.67;8.97;;;;;;;24.22;61.06;98645.34;262410;1091;114898;-70
2021/07/26 22:33:35;;;;;;;13.75;9.23;;;;;;;24.09;61.44;98647.91;263167;1092;115693;-70
2021/07/26 22:38:39;;;;;;;;;;;;;;;24.02;61.67;98652.42;263945;1092;115550;-70
2021/07/26 22:43:42;;;;;;;12.60;9.10;;;;;;;23.98;61.70;98662.84;263900;1092;101560;-70
2021/07/26 22:48:45;;;;;;;13.70;8.38;;;;;;;23.99;62.01;98666.39;263139;1092;115012;-68
2021/07/26 22:53:49;;;;;;;10.75;8.48;;;;;;;23.91;61.93;98656.45;261995;1092;114930;-69
2021/07/26 22:58:53;;;;;;;11.93;9.83;;;;;;;23.79;62.03;98647.95;263733;1092;115387;-69
2021/07/26 23:03:58;;;;;;;10.33;8.13;;;;;;;23.69;62.16;98662.86;263727;1092;115065;-72
2021/07/26 23:09:07;;;;;;;10.23;7.97;;;;;;;23.66;62.66;98655.05;262000;1091;114513;-71
2021/07/26 23:14:19;;;;;;;13.80;9.03;;;;;;;23.61;62.69;98669.21;261431;1092;115122;-70
2021/07/26 23:19:24;;;;;;;13.90;9.50;;;;;;;23.47;62.61;98664.59;261890;1093;114743;-69
2021/07/26 23:24:39;;;;;;;14.03;9.83;;;;;;;23.43;63.08;98655.98;261324;1093;113451;-71